sensor_id;sensor_type;location;lat;lon;timestamp;temperature;humidity
69895;DHT22;57172;52.034;5.090;2023-05-20T00:00:44;14.20;58.20
69895;DHT22;57172;52.034;5.090;2023-05-20T00:03:15;14.10;58.30
69895;DHT22;57172;52.034;5.090;2023-05-20T00:05:42;14.10;58.40
69895;DHT22;57172;52.034;5.090;2023-05-20T00:08:10;14.10;58.40
69895;DHT22;57172;52.034;5.090;2023-05-20T00:10:38;14.00;58.60
69895;DHT22;57172;52.034;5.090;2023-05-20T00:13:05;14.00;58.60
69895;DHT22;57172;52.034;5.090;2023-05-20T00:15:34;14.00;58.80
69895;DHT22;57172;52.034;5.090;2023-05-20T00:18:03;13.90;58.90
69895;DHT22;57172;52.034;5.090;2023-05-20T00:20:31;13.90;58.80
69895;DHT22;57172;52.034;5.090;2023-05-20T00:22:58;13.90;59.00
69895;DHT22;57172;52.034;5.090;2023-05-20T00:25:25;13.80;59.00
69895;DHT22;57172;52.034;5.090;2023-05-20T00:27:52;13.80;59.10
69895;DHT22;57172;52.034;5.090;2023-05-20T00:30:19;13.80;59.10
69895;DHT22;57172;52.034;5.090;2023-05-20T00:32:46;13.80;59.30
69895;DHT22;57172;52.034;5.090;2023-05-20T00:35:13;13.70;59.40
69895;DHT22;57172;52.034;5.090;2023-05-20T00:37:41;13.70;59.40
69895;DHT22;57172;52.034;5.090;2023-05-20T00:40:09;13.70;59.60
69895;DHT22;57172;52.034;5.090;2023-05-20T00:42:38;13.70;59.60
69895;DHT22;57172;52.034;5.090;2023-05-20T00:45:05;13.70;59.60
69895;DHT22;57172;52.034;5.090;2023-05-20T00:47:33;13.70;59.80
69895;DHT22;57172;52.034;5.090;2023-05-20T00:50:03;13.70;59.60
69895;DHT22;57172;52.034;5.090;2023-05-20T00:52:31;13.70;59.70
69895;DHT22;57172;52.034;5.090;2023-05-20T00:54:59;13.70;59.90
69895;DHT22;57172;52.034;5.090;2023-05-20T00:57:26;13.70;60.00
69895;DHT22;57172;52.034;5.090;2023-05-20T00:59:54;13.60;59.90
69895;DHT22;57172;52.034;5.090;2023-05-20T01:02:21;13.70;60.10
69895;DHT22;57172;52.034;5.090;2023-05-20T01:04:49;13.70;60.00
69895;DHT22;57172;52.034;5.090;2023-05-20T01:07:17;13.70;60.00
69895;DHT22;57172;52.034;5.090;2023-05-20T01:09:45;13.70;60.20
69895;DHT22;57172;52.034;5.090;2023-05-20T01:15:00;13.60;60.40
69895;DHT22;57172;52.034;5.090;2023-05-20T01:17:30;13.60;60.30
69895;DHT22;57172;52.034;5.090;2023-05-20T01:20:01;13.60;60.40
69895;DHT22;57172;52.034;5.090;2023-05-20T01:22:28;13.60;60.20
69895;DHT22;57172;52.034;5.090;2023-05-20T01:24:55;13.60;60.40
69895;DHT22;57172;52.034;5.090;2023-05-20T01:27:24;13.50;60.50
69895;DHT22;57172;52.034;5.090;2023-05-20T01:29:52;13.50;60.40
69895;DHT22;57172;52.034;5.090;2023-05-20T01:32:21;13.50;60.50
69895;DHT22;57172;52.034;5.090;2023-05-20T01:34:49;13.50;60.50
69895;DHT22;57172;52.034;5.090;2023-05-20T01:37:18;13.40;60.70
69895;DHT22;57172;52.034;5.090;2023-05-20T01:39:49;13.40;60.70
69895;DHT22;57172;52.034;5.090;2023-05-20T01:42:19;13.40;60.90
69895;DHT22;57172;52.034;5.090;2023-05-20T01:44:47;13.40;60.90
69895;DHT22;57172;52.034;5.090;2023-05-20T01:47:14;13.30;61.20
69895;DHT22;57172;52.034;5.090;2023-05-20T01:49:41;13.30;61.20
69895;DHT22;57172;52.034;5.090;2023-05-20T01:52:08;13.20;61.20
69895;DHT22;57172;52.034;5.090;2023-05-20T01:54:35;13.20;61.50
69895;DHT22;57172;52.034;5.090;2023-05-20T01:57:02;13.10;61.50
69895;DHT22;57172;52.034;5.090;2023-05-20T01:59:29;13.10;61.50
69895;DHT22;57172;52.034;5.090;2023-05-20T02:01:57;13.10;61.70
69895;DHT22;57172;52.034;5.090;2023-05-20T02:04:24;13.00;61.90
69895;DHT22;57172;52.034;5.090;2023-05-20T02:06:51;13.00;62.00
69895;DHT22;57172;52.034;5.090;2023-05-20T02:09:18;13.00;62.00
69895;DHT22;57172;52.034;5.090;2023-05-20T02:11:45;13.00;62.00
69895;DHT22;57172;52.034;5.090;2023-05-20T02:14:12;13.00;62.10
69895;DHT22;57172;52.034;5.090;2023-05-20T02:16:39;13.00;62.20
69895;DHT22;57172;52.034;5.090;2023-05-20T02:19:07;13.00;62.30
69895;DHT22;57172;52.034;5.090;2023-05-20T02:21:40;13.00;62.40
69895;DHT22;57172;52.034;5.090;2023-05-20T02:24:08;13.00;62.40
69895;DHT22;57172;52.034;5.090;2023-05-20T02:26:36;13.00;62.50
69895;DHT22;57172;52.034;5.090;2023-05-20T02:29:03;13.00;62.50
69895;DHT22;57172;52.034;5.090;2023-05-20T02:31:30;12.90;62.50
69895;DHT22;57172;52.034;5.090;2023-05-20T02:33:57;12.90;62.40
69895;DHT22;57172;52.034;5.090;2023-05-20T02:36:24;12.90;62.40
69895;DHT22;57172;52.034;5.090;2023-05-20T02:38:51;12.90;62.50
69895;DHT22;57172;52.034;5.090;2023-05-20T02:41:20;12.80;62.50
69895;DHT22;57172;52.034;5.090;2023-05-20T02:43:47;12.80;62.70
69895;DHT22;57172;52.034;5.090;2023-05-20T02:46:14;12.70;62.80
69895;DHT22;57172;52.034;5.090;2023-05-20T02:48:44;12.70;62.90
69895;DHT22;57172;52.034;5.090;2023-05-20T02:51:11;12.70;62.90
69895;DHT22;57172;52.034;5.090;2023-05-20T02:53:38;12.70;62.90
69895;DHT22;57172;52.034;5.090;2023-05-20T02:56:05;12.60;63.00
69895;DHT22;57172;52.034;5.090;2023-05-20T02:58:34;12.60;62.90
69895;DHT22;57172;52.034;5.090;2023-05-20T03:01:02;12.60;63.20
69895;DHT22;57172;52.034;5.090;2023-05-20T03:03:29;12.60;63.30
69895;DHT22;57172;52.034;5.090;2023-05-20T03:05:57;12.50;63.30
69895;DHT22;57172;52.034;5.090;2023-05-20T03:08:24;12.50;63.40
69895;DHT22;57172;52.034;5.090;2023-05-20T03:10:51;12.50;63.40
69895;DHT22;57172;52.034;5.090;2023-05-20T03:13:19;12.50;63.70
69895;DHT22;57172;52.034;5.090;2023-05-20T03:15:46;12.50;63.80
69895;DHT22;57172;52.034;5.090;2023-05-20T03:18:13;12.40;63.90
69895;DHT22;57172;52.034;5.090;2023-05-20T03:20:40;12.40;63.80
69895;DHT22;57172;52.034;5.090;2023-05-20T03:23:08;12.40;64.00
69895;DHT22;57172;52.034;5.090;2023-05-20T03:25:36;12.40;64.00
69895;DHT22;57172;52.034;5.090;2023-05-20T03:28:04;12.40;64.10
69895;DHT22;57172;52.034;5.090;2023-05-20T03:30:34;12.30;64.20
69895;DHT22;57172;52.034;5.090;2023-05-20T03:33:01;12.30;64.20
69895;DHT22;57172;52.034;5.090;2023-05-20T03:35:29;12.30;64.20
69895;DHT22;57172;52.034;5.090;2023-05-20T03:37:56;12.30;64.40
69895;DHT22;57172;52.034;5.090;2023-05-20T03:40:25;12.20;64.50
69895;DHT22;57172;52.034;5.090;2023-05-20T03:42:52;12.20;64.80
69895;DHT22;57172;52.034;5.090;2023-05-20T03:45:20;12.20;64.70
69895;DHT22;57172;52.034;5.090;2023-05-20T03:47:56;12.20;64.80
69895;DHT22;57172;52.034;5.090;2023-05-20T03:50:24;12.20;64.80
69895;DHT22;57172;52.034;5.090;2023-05-20T03:52:51;12.20;65.10
69895;DHT22;57172;52.034;5.090;2023-05-20T03:55:20;12.20;65.30
69895;DHT22;57172;52.034;5.090;2023-05-20T03:57:47;12.20;65.40
69895;DHT22;57172;52.034;5.090;2023-05-20T04:00:14;12.20;65.60
69895;DHT22;57172;52.034;5.090;2023-05-20T04:02:42;12.30;65.60
69895;DHT22;57172;52.034;5.090;2023-05-20T04:05:12;12.30;65.50
69895;DHT22;57172;52.034;5.090;2023-05-20T04:07:40;12.40;65.50
69895;DHT22;57172;52.034;5.090;2023-05-20T04:10:08;12.40;65.40
69895;DHT22;57172;52.034;5.090;2023-05-20T04:12:35;12.40;65.50
69895;DHT22;57172;52.034;5.090;2023-05-20T04:15:05;12.40;65.50
69895;DHT22;57172;52.034;5.090;2023-05-20T04:17:40;12.40;65.60
69895;DHT22;57172;52.034;5.090;2023-05-20T04:20:09;12.40;65.50
69895;DHT22;57172;52.034;5.090;2023-05-20T04:22:37;12.40;65.60
69895;DHT22;57172;52.034;5.090;2023-05-20T04:25:05;12.40;65.60
69895;DHT22;57172;52.034;5.090;2023-05-20T04:27:33;12.40;65.70
69895;DHT22;57172;52.034;5.090;2023-05-20T04:30:00;12.50;65.90
69895;DHT22;57172;52.034;5.090;2023-05-20T04:32:32;12.50;65.80
69895;DHT22;57172;52.034;5.090;2023-05-20T04:35:00;12.50;65.90
69895;DHT22;57172;52.034;5.090;2023-05-20T04:37:33;12.50;66.00
69895;DHT22;57172;52.034;5.090;2023-05-20T04:40:04;12.60;66.10
69895;DHT22;57172;52.034;5.090;2023-05-20T04:42:35;12.60;66.00
69895;DHT22;57172;52.034;5.090;2023-05-20T04:45:04;12.70;66.10
69895;DHT22;57172;52.034;5.090;2023-05-20T04:47:33;12.80;66.10
69895;DHT22;57172;52.034;5.090;2023-05-20T04:50:06;12.80;66.00
69895;DHT22;57172;52.034;5.090;2023-05-20T04:52:37;12.90;66.00
69895;DHT22;57172;52.034;5.090;2023-05-20T04:55:06;13.00;65.90
69895;DHT22;57172;52.034;5.090;2023-05-20T04:57:36;13.10;65.90
69895;DHT22;57172;52.034;5.090;2023-05-20T05:00:07;13.20;65.80
69895;DHT22;57172;52.034;5.090;2023-05-20T05:02:36;13.30;65.70
69895;DHT22;57172;52.034;5.090;2023-05-20T05:05:04;13.40;65.40
69895;DHT22;57172;52.034;5.090;2023-05-20T05:07:31;13.50;65.00
69895;DHT22;57172;52.034;5.090;2023-05-20T05:09:58;13.50;64.70
69895;DHT22;57172;52.034;5.090;2023-05-20T05:12:27;13.60;64.50
69895;DHT22;57172;52.034;5.090;2023-05-20T05:14:54;13.50;64.40
69895;DHT22;57172;52.034;5.090;2023-05-20T05:17:21;13.50;64.40
69895;DHT22;57172;52.034;5.090;2023-05-20T05:19:48;13.60;64.30
69895;DHT22;57172;52.034;5.090;2023-05-20T05:22:15;13.60;64.40
69895;DHT22;57172;52.034;5.090;2023-05-20T05:24:42;13.60;64.40
69895;DHT22;57172;52.034;5.090;2023-05-20T05:27:10;13.60;64.30
69895;DHT22;57172;52.034;5.090;2023-05-20T05:29:37;13.60;64.40
69895;DHT22;57172;52.034;5.090;2023-05-20T05:32:04;13.60;64.40
69895;DHT22;57172;52.034;5.090;2023-05-20T05:34:32;13.60;64.50
69895;DHT22;57172;52.034;5.090;2023-05-20T05:36:58;13.60;64.40
69895;DHT22;57172;52.034;5.090;2023-05-20T05:39:25;13.60;64.40
69895;DHT22;57172;52.034;5.090;2023-05-20T05:41:52;13.70;64.30
69895;DHT22;57172;52.034;5.090;2023-05-20T05:44:20;13.70;64.30
69895;DHT22;57172;52.034;5.090;2023-05-20T05:46:48;13.70;64.20
69895;DHT22;57172;52.034;5.090;2023-05-20T05:49:15;13.70;64.10
69895;DHT22;57172;52.034;5.090;2023-05-20T05:51:43;13.80;64.10
69895;DHT22;57172;52.034;5.090;2023-05-20T05:54:11;13.80;64.10
69895;DHT22;57172;52.034;5.090;2023-05-20T05:56:38;13.80;64.00
69895;DHT22;57172;52.034;5.090;2023-05-20T05:59:04;13.90;63.90
69895;DHT22;57172;52.034;5.090;2023-05-20T06:01:31;13.90;63.90
69895;DHT22;57172;52.034;5.090;2023-05-20T06:03:58;14.00;63.90
69895;DHT22;57172;52.034;5.090;2023-05-20T06:06:26;14.00;63.70
69895;DHT22;57172;52.034;5.090;2023-05-20T06:08:53;14.10;63.60
69895;DHT22;57172;52.034;5.090;2023-05-20T06:11:22;14.10;63.50
69895;DHT22;57172;52.034;5.090;2023-05-20T06:13:50;14.20;63.50
69895;DHT22;57172;52.034;5.090;2023-05-20T06:16:17;14.30;63.30
69895;DHT22;57172;52.034;5.090;2023-05-20T06:18:45;14.40;63.30
69895;DHT22;57172;52.034;5.090;2023-05-20T06:21:12;14.40;63.00
69895;DHT22;57172;52.034;5.090;2023-05-20T06:23:40;14.50;62.90
69895;DHT22;57172;52.034;5.090;2023-05-20T06:26:09;14.60;62.90
69895;DHT22;57172;52.034;5.090;2023-05-20T06:28:37;14.70;62.50
69895;DHT22;57172;52.034;5.090;2023-05-20T06:31:04;14.70;62.10
69895;DHT22;57172;52.034;5.090;2023-05-20T06:33:34;14.80;62.10
69895;DHT22;57172;52.034;5.090;2023-05-20T06:36:09;14.90;62.00
69895;DHT22;57172;52.034;5.090;2023-05-20T06:38:36;14.90;62.00
69895;DHT22;57172;52.034;5.090;2023-05-20T06:41:04;15.00;61.60
69895;DHT22;57172;52.034;5.090;2023-05-20T06:43:32;15.10;61.40
69895;DHT22;57172;52.034;5.090;2023-05-20T06:46:07;15.10;61.10
69895;DHT22;57172;52.034;5.090;2023-05-20T06:48:37;15.20;61.20
69895;DHT22;57172;52.034;5.090;2023-05-20T06:51:08;15.30;61.10
69895;DHT22;57172;52.034;5.090;2023-05-20T06:53:36;15.30;60.50
69895;DHT22;57172;52.034;5.090;2023-05-20T06:56:04;15.40;60.50
69895;DHT22;57172;52.034;5.090;2023-05-20T06:58:31;15.50;60.80
69895;DHT22;57172;52.034;5.090;2023-05-20T07:00:58;15.60;60.50
69895;DHT22;57172;52.034;5.090;2023-05-20T07:03:26;15.70;60.50
69895;DHT22;57172;52.034;5.090;2023-05-20T07:05:53;15.80;60.20
69895;DHT22;57172;52.034;5.090;2023-05-20T07:08:20;15.90;59.70
69895;DHT22;57172;52.034;5.090;2023-05-20T07:10:47;16.00;59.70
69895;DHT22;57172;52.034;5.090;2023-05-20T07:13:18;16.10;59.60
69895;DHT22;57172;52.034;5.090;2023-05-20T07:15:45;16.20;59.30
69895;DHT22;57172;52.034;5.090;2023-05-20T07:18:14;16.30;59.10
69895;DHT22;57172;52.034;5.090;2023-05-20T07:20:44;16.40;58.90
69895;DHT22;57172;52.034;5.090;2023-05-20T07:23:24;16.50;58.60
69895;DHT22;57172;52.034;5.090;2023-05-20T07:25:53;16.50;58.20
69895;DHT22;57172;52.034;5.090;2023-05-20T07:28:20;16.60;58.00
69895;DHT22;57172;52.034;5.090;2023-05-20T07:30:49;16.60;57.80
69895;DHT22;57172;52.034;5.090;2023-05-20T07:33:25;16.80;57.90
69895;DHT22;57172;52.034;5.090;2023-05-20T07:35:52;16.90;57.30
69895;DHT22;57172;52.034;5.090;2023-05-20T07:38:21;16.90;57.20
69895;DHT22;57172;52.034;5.090;2023-05-20T07:40:55;17.00;57.60
69895;DHT22;57172;52.034;5.090;2023-05-20T07:43:22;17.20;57.40
69895;DHT22;57172;52.034;5.090;2023-05-20T07:45:49;17.30;56.90
69895;DHT22;57172;52.034;5.090;2023-05-20T07:48:16;17.40;56.50
69895;DHT22;57172;52.034;5.090;2023-05-20T07:50:43;17.50;56.30
69895;DHT22;57172;52.034;5.090;2023-05-20T07:53:11;17.60;56.20
69895;DHT22;57172;52.034;5.090;2023-05-20T07:55:38;17.80;55.80
69895;DHT22;57172;52.034;5.090;2023-05-20T07:58:05;17.90;55.60
69895;DHT22;57172;52.034;5.090;2023-05-20T08:00:34;18.00;55.60
69895;DHT22;57172;52.034;5.090;2023-05-20T08:03:05;18.10;54.80
69895;DHT22;57172;52.034;5.090;2023-05-20T08:05:52;18.20;54.50
69895;DHT22;57172;52.034;5.090;2023-05-20T08:08:19;18.30;53.80
69895;DHT22;57172;52.034;5.090;2023-05-20T08:10:53;18.30;53.60
69895;DHT22;57172;52.034;5.090;2023-05-20T08:13:24;18.40;53.50
69895;DHT22;57172;52.034;5.090;2023-05-20T08:15:52;18.50;53.30
69895;DHT22;57172;52.034;5.090;2023-05-20T08:18:20;18.60;53.10
69895;DHT22;57172;52.034;5.090;2023-05-20T08:20:48;18.80;52.80
69895;DHT22;57172;52.034;5.090;2023-05-20T08:23:15;18.90;52.10
69895;DHT22;57172;52.034;5.090;2023-05-20T08:25:42;19.10;51.80
69895;DHT22;57172;52.034;5.090;2023-05-20T08:28:10;19.20;51.20
69895;DHT22;57172;52.034;5.090;2023-05-20T08:30:37;19.40;49.80
69895;DHT22;57172;52.034;5.090;2023-05-20T08:33:05;19.60;49.40
69895;DHT22;57172;52.034;5.090;2023-05-20T08:35:32;19.80;49.90
69895;DHT22;57172;52.034;5.090;2023-05-20T08:37:59;20.30;49.10
69895;DHT22;57172;52.034;5.090;2023-05-20T08:40:27;20.80;49.10
69895;DHT22;57172;52.034;5.090;2023-05-20T08:42:54;21.50;47.60
69895;DHT22;57172;52.034;5.090;2023-05-20T08:45:24;22.00;46.70
69895;DHT22;57172;52.034;5.090;2023-05-20T08:47:59;22.60;44.70
69895;DHT22;57172;52.034;5.090;2023-05-20T08:50:26;23.20;44.00
69895;DHT22;57172;52.034;5.090;2023-05-20T08:52:53;23.70;44.00
69895;DHT22;57172;52.034;5.090;2023-05-20T08:55:25;24.30;43.10
69895;DHT22;57172;52.034;5.090;2023-05-20T08:57:53;24.80;42.10
69895;DHT22;57172;52.034;5.090;2023-05-20T09:00:22;25.40;41.40
69895;DHT22;57172;52.034;5.090;2023-05-20T09:02:53;26.00;41.00
69895;DHT22;57172;52.034;5.090;2023-05-20T09:05:21;26.20;39.10
69895;DHT22;57172;52.034;5.090;2023-05-20T09:07:49;26.00;37.70
69895;DHT22;57172;52.034;5.090;2023-05-20T09:10:17;25.70;37.80
69895;DHT22;57172;52.034;5.090;2023-05-20T09:12:45;25.20;37.40
69895;DHT22;57172;52.034;5.090;2023-05-20T09:15:12;24.80;37.50
69895;DHT22;57172;52.034;5.090;2023-05-20T09:17:39;24.50;37.50
69895;DHT22;57172;52.034;5.090;2023-05-20T09:20:08;24.40;37.70
69895;DHT22;57172;52.034;5.090;2023-05-20T09:22:35;24.80;38.10
69895;DHT22;57172;52.034;5.090;2023-05-20T09:25:02;25.20;37.60
69895;DHT22;57172;52.034;5.090;2023-05-20T09:27:29;25.20;36.50
69895;DHT22;57172;52.034;5.090;2023-05-20T09:29:56;25.20;36.70
69895;DHT22;57172;52.034;5.090;2023-05-20T09:32:23;25.10;36.50
69895;DHT22;57172;52.034;5.090;2023-05-20T09:34:53;25.10;37.10
69895;DHT22;57172;52.034;5.090;2023-05-20T09:37:21;25.50;37.50
69895;DHT22;57172;52.034;5.090;2023-05-20T09:39:55;26.20;37.20
69895;DHT22;57172;52.034;5.090;2023-05-20T09:42:27;27.00;36.20
69895;DHT22;57172;52.034;5.090;2023-05-20T09:44:55;27.60;35.30
69895;DHT22;57172;52.034;5.090;2023-05-20T09:47:25;28.10;34.10
69895;DHT22;57172;52.034;5.090;2023-05-20T09:49:52;28.50;34.50
69895;DHT22;57172;52.034;5.090;2023-05-20T09:52:20;29.10;32.40
69895;DHT22;57172;52.034;5.090;2023-05-20T09:54:49;29.40;31.90
69895;DHT22;57172;52.034;5.090;2023-05-20T09:57:17;29.40;31.00
69895;DHT22;57172;52.034;5.090;2023-05-20T09:59:45;29.60;31.00
69895;DHT22;57172;52.034;5.090;2023-05-20T10:02:13;29.70;31.10
69895;DHT22;57172;52.034;5.090;2023-05-20T10:04:44;30.00;31.10
69895;DHT22;57172;52.034;5.090;2023-05-20T10:15:48;31.00;30.00
69895;DHT22;57172;52.034;5.090;2023-05-20T10:21:02;31.70;27.60
69895;DHT22;57172;52.034;5.090;2023-05-20T10:23:40;31.60;28.00
69895;DHT22;57172;52.034;5.090;2023-05-20T10:26:08;31.60;28.10
69895;DHT22;57172;52.034;5.090;2023-05-20T10:28:36;31.60;28.20
69895;DHT22;57172;52.034;5.090;2023-05-20T10:31:42;31.80;28.90
69895;DHT22;57172;52.034;5.090;2023-05-20T10:34:20;32.50;29.10
69895;DHT22;57172;52.034;5.090;2023-05-20T10:39:29;32.40;26.70
69895;DHT22;57172;52.034;5.090;2023-05-20T10:42:10;31.80;27.60
69895;DHT22;57172;52.034;5.090;2023-05-20T10:47:08;31.00;27.60
69895;DHT22;57172;52.034;5.090;2023-05-20T10:49:43;30.50;27.70
69895;DHT22;57172;52.034;5.090;2023-05-20T10:52:12;30.20;29.00
69895;DHT22;57172;52.034;5.090;2023-05-20T10:54:46;30.50;29.50
69895;DHT22;57172;52.034;5.090;2023-05-20T10:57:17;31.10;29.00
69895;DHT22;57172;52.034;5.090;2023-05-20T10:59:44;31.50;28.70
69895;DHT22;57172;52.034;5.090;2023-05-20T11:02:15;31.80;28.20
69895;DHT22;57172;52.034;5.090;2023-05-20T11:04:43;32.10;27.30
69895;DHT22;57172;52.034;5.090;2023-05-20T11:07:10;32.20;27.30
69895;DHT22;57172;52.034;5.090;2023-05-20T11:09:37;32.00;27.20
69895;DHT22;57172;52.034;5.090;2023-05-20T11:12:04;31.50;27.60
69895;DHT22;57172;52.034;5.090;2023-05-20T11:14:33;30.90;27.60
69895;DHT22;57172;52.034;5.090;2023-05-20T11:17:00;30.20;28.60
69895;DHT22;57172;52.034;5.090;2023-05-20T11:19:27;29.80;28.40
69895;DHT22;57172;52.034;5.090;2023-05-20T11:21:55;29.30;29.40
69895;DHT22;57172;52.034;5.090;2023-05-20T11:24:26;29.10;29.40
69895;DHT22;57172;52.034;5.090;2023-05-20T11:26:54;29.00;29.80
69895;DHT22;57172;52.034;5.090;2023-05-20T11:29:21;29.30;30.90
69895;DHT22;57172;52.034;5.090;2023-05-20T11:31:49;30.00;30.10
69895;DHT22;57172;52.034;5.090;2023-05-20T11:34:22;30.50;29.20
69895;DHT22;57172;52.034;5.090;2023-05-20T11:36:56;30.40;29.00
69895;DHT22;57172;52.034;5.090;2023-05-20T11:39:24;30.40;28.80
69895;DHT22;57172;52.034;5.090;2023-05-20T11:41:54;30.10;28.70
69895;DHT22;57172;52.034;5.090;2023-05-20T11:44:21;30.00;29.40
69895;DHT22;57172;52.034;5.090;2023-05-20T11:46:48;30.40;30.10
69895;DHT22;57172;52.034;5.090;2023-05-20T11:49:15;31.30;30.00
69895;DHT22;57172;52.034;5.090;2023-05-20T11:51:43;31.90;28.00
69895;DHT22;57172;52.034;5.090;2023-05-20T11:54:10;32.00;28.30
69895;DHT22;57172;52.034;5.090;2023-05-20T11:56:38;32.10;28.20
69895;DHT22;57172;52.034;5.090;2023-05-20T11:59:08;32.20;27.90
69895;DHT22;57172;52.034;5.090;2023-05-20T12:01:37;32.10;28.20
69895;DHT22;57172;52.034;5.090;2023-05-20T12:04:09;32.30;27.90
69895;DHT22;57172;52.034;5.090;2023-05-20T12:06:36;32.20;27.60
69895;DHT22;57172;52.034;5.090;2023-05-20T12:09:05;32.20;28.60
69895;DHT22;57172;52.034;5.090;2023-05-20T12:11:38;32.20;28.30
69895;DHT22;57172;52.034;5.090;2023-05-20T12:14:07;32.10;28.20
69895;DHT22;57172;52.034;5.090;2023-05-20T12:16:35;31.90;27.80
69895;DHT22;57172;52.034;5.090;2023-05-20T12:19:03;31.50;28.70
69895;DHT22;57172;52.034;5.090;2023-05-20T12:21:30;31.50;29.20
69895;DHT22;57172;52.034;5.090;2023-05-20T12:24:00;32.10;29.20
69895;DHT22;57172;52.034;5.090;2023-05-20T12:26:28;32.70;28.40
69895;DHT22;57172;52.034;5.090;2023-05-20T12:28:55;33.20;27.60
69895;DHT22;57172;52.034;5.090;2023-05-20T12:31:23;33.80;27.40
69895;DHT22;57172;52.034;5.090;2023-05-20T12:33:51;34.30;26.70
69895;DHT22;57172;52.034;5.090;2023-05-20T12:36:18;34.40;26.40
69895;DHT22;57172;52.034;5.090;2023-05-20T12:38:47;34.50;26.20
69895;DHT22;57172;52.034;5.090;2023-05-20T12:41:14;34.40;26.00
69895;DHT22;57172;52.034;5.090;2023-05-20T12:43:41;34.40;26.20
69895;DHT22;57172;52.034;5.090;2023-05-20T12:46:08;34.50;25.90
69895;DHT22;57172;52.034;5.090;2023-05-20T12:48:35;34.10;26.30
69895;DHT22;57172;52.034;5.090;2023-05-20T12:51:03;33.80;26.70
69895;DHT22;57172;52.034;5.090;2023-05-20T12:53:30;33.70;26.60
69895;DHT22;57172;52.034;5.090;2023-05-20T12:55:57;33.20;26.60
69895;DHT22;57172;52.034;5.090;2023-05-20T12:58:24;32.60;27.40
69895;DHT22;57172;52.034;5.090;2023-05-20T13:00:50;32.60;27.70
69895;DHT22;57172;52.034;5.090;2023-05-20T13:03:17;32.60;27.60
69895;DHT22;57172;52.034;5.090;2023-05-20T13:05:45;32.30;27.70
69895;DHT22;57172;52.034;5.090;2023-05-20T13:08:11;32.20;27.80
69895;DHT22;57172;52.034;5.090;2023-05-20T13:10:40;31.90;27.40
69895;DHT22;57172;52.034;5.090;2023-05-20T13:13:07;31.30;28.00
69895;DHT22;57172;52.034;5.090;2023-05-20T13:15:34;31.00;28.70
69895;DHT22;57172;52.034;5.090;2023-05-20T13:18:02;30.80;28.90
69895;DHT22;57172;52.034;5.090;2023-05-20T13:20:31;30.70;28.80
69895;DHT22;57172;52.034;5.090;2023-05-20T13:22:59;30.40;28.80
69895;DHT22;57172;52.034;5.090;2023-05-20T13:25:26;30.00;29.30
69895;DHT22;57172;52.034;5.090;2023-05-20T13:27:53;29.80;30.20
69895;DHT22;57172;52.034;5.090;2023-05-20T13:30:20;30.10;30.70
69895;DHT22;57172;52.034;5.090;2023-05-20T13:32:47;30.50;30.00
69895;DHT22;57172;52.034;5.090;2023-05-20T13:35:14;30.70;29.50
69895;DHT22;57172;52.034;5.090;2023-05-20T13:37:42;30.70;29.40
69895;DHT22;57172;52.034;5.090;2023-05-20T13:40:10;30.50;29.80
69895;DHT22;57172;52.034;5.090;2023-05-20T13:42:37;30.40;30.20
69895;DHT22;57172;52.034;5.090;2023-05-20T13:45:04;30.20;29.60
69895;DHT22;57172;52.034;5.090;2023-05-20T13:47:32;29.90;29.90
69895;DHT22;57172;52.034;5.090;2023-05-20T13:49:59;29.40;30.70
69895;DHT22;57172;52.034;5.090;2023-05-20T13:52:28;29.10;30.90
69895;DHT22;57172;52.034;5.090;2023-05-20T13:54:55;28.90;31.10
69895;DHT22;57172;52.034;5.090;2023-05-20T13:57:22;28.60;31.70
69895;DHT22;57172;52.034;5.090;2023-05-20T13:59:49;28.50;31.50
69895;DHT22;57172;52.034;5.090;2023-05-20T14:02:16;28.20;32.00
69895;DHT22;57172;52.034;5.090;2023-05-20T14:04:43;28.00;32.30
69895;DHT22;57172;52.034;5.090;2023-05-20T14:07:12;27.80;32.20
69895;DHT22;57172;52.034;5.090;2023-05-20T14:09:39;27.60;32.70
69895;DHT22;57172;52.034;5.090;2023-05-20T14:12:06;27.50;32.90
69895;DHT22;57172;52.034;5.090;2023-05-20T14:14:33;27.50;32.80
69895;DHT22;57172;52.034;5.090;2023-05-20T14:17:00;27.50;33.10
69895;DHT22;57172;52.034;5.090;2023-05-20T14:19:27;27.60;33.10
69895;DHT22;57172;52.034;5.090;2023-05-20T14:21:55;27.70;32.90
69895;DHT22;57172;52.034;5.090;2023-05-20T14:24:26;27.80;32.80
69895;DHT22;57172;52.034;5.090;2023-05-20T14:26:53;28.00;33.00
69895;DHT22;57172;52.034;5.090;2023-05-20T14:29:20;28.40;33.00
69895;DHT22;57172;52.034;5.090;2023-05-20T14:31:47;29.00;33.00
69895;DHT22;57172;52.034;5.090;2023-05-20T14:34:14;29.70;31.90
69895;DHT22;57172;52.034;5.090;2023-05-20T14:36:41;30.20;31.60
69895;DHT22;57172;52.034;5.090;2023-05-20T14:39:09;30.70;30.90
69895;DHT22;57172;52.034;5.090;2023-05-20T14:41:36;30.90;30.20
69895;DHT22;57172;52.034;5.090;2023-05-20T14:44:03;30.90;29.90
69895;DHT22;57172;52.034;5.090;2023-05-20T14:46:30;30.70;30.10
69895;DHT22;57172;52.034;5.090;2023-05-20T14:48:57;30.60;30.20
69895;DHT22;57172;52.034;5.090;2023-05-20T14:51:25;30.30;30.20
69895;DHT22;57172;52.034;5.090;2023-05-20T14:53:52;29.90;30.50
69895;DHT22;57172;52.034;5.090;2023-05-20T14:56:19;29.60;30.60
69895;DHT22;57172;52.034;5.090;2023-05-20T14:58:46;29.30;30.80
69895;DHT22;57172;52.034;5.090;2023-05-20T15:01:13;29.00;31.40
69895;DHT22;57172;52.034;5.090;2023-05-20T15:03:40;28.90;31.40
69895;DHT22;57172;52.034;5.090;2023-05-20T15:06:08;28.60;31.30
69895;DHT22;57172;52.034;5.090;2023-05-20T15:08:35;28.20;32.20
69895;DHT22;57172;52.034;5.090;2023-05-20T15:11:02;28.00;32.80
69895;DHT22;57172;52.034;5.090;2023-05-20T15:13:29;28.00;32.60
69895;DHT22;57172;52.034;5.090;2023-05-20T15:15:56;27.90;32.80
69895;DHT22;57172;52.034;5.090;2023-05-20T15:18:23;27.80;33.00
69895;DHT22;57172;52.034;5.090;2023-05-20T15:20:50;27.70;32.70
69895;DHT22;57172;52.034;5.090;2023-05-20T15:23:17;27.50;33.00
69895;DHT22;57172;52.034;5.090;2023-05-20T15:25:44;27.50;33.40
69895;DHT22;57172;52.034;5.090;2023-05-20T15:28:11;27.50;33.40
69895;DHT22;57172;52.034;5.090;2023-05-20T15:30:39;27.50;33.30
69895;DHT22;57172;52.034;5.090;2023-05-20T15:33:06;27.40;33.30
69895;DHT22;57172;52.034;5.090;2023-05-20T15:35:33;27.30;33.70
69895;DHT22;57172;52.034;5.090;2023-05-20T15:38:00;27.20;33.60
69895;DHT22;57172;52.034;5.090;2023-05-20T15:40:27;27.10;33.50
69895;DHT22;57172;52.034;5.090;2023-05-20T15:42:54;27.00;33.50
69895;DHT22;57172;52.034;5.090;2023-05-20T15:45:21;26.90;34.00
69895;DHT22;57172;52.034;5.090;2023-05-20T15:47:48;26.90;34.20
69895;DHT22;57172;52.034;5.090;2023-05-20T15:50:15;26.80;33.70
69895;DHT22;57172;52.034;5.090;2023-05-20T15:52:41;26.70;33.60
69895;DHT22;57172;52.034;5.090;2023-05-20T15:55:09;26.50;34.00